Time;durP1;ratioP1;P1;durP2;ratioP2;P2;SDS_P1;SDS_P2;PMS_P1;PMS_P2;Temp;Humidity;BMP_temperature;BMP_pressure;BME280_temperature;BME280_humidity;BME280_pressure;Samples;Min_cycle;Max_cycle;Signal;HPM_P1;HPM_P2
2022/06/11 00:02:25;;;;;;;11.90;7.90;;;;;;;15.69;67.70;101045.23;110318;1254;21979;-79
2022/06/11 00:05:08;;;;;;;9.10;8.20;;;;;;;15.66;67.89;101047.86;110196;1256;21966;-79
2022/06/11 00:08:00;;;;;;;12.20;7.40;;;;;;;15.63;67.97;101050.40;110065;1256;22491;-79
2022/06/11 00:11:49;;;;;;;;;;;;;;;;;;;;;
2022/06/11 00:15:09;;;;;;;10.10;8.00;;;;;;;15.50;68.26;101060.39;110498;1259;21972;-79
2022/06/11 00:18:20;;;;;;;11.10;8.80;;;;;;;15.45;68.36;101063.44;109368;1264;21992;-78
2022/06/11 00:21:30;;;;;;;;;;;;;;;;;;;;;
2022/06/11 00:24:38;;;;;;;9.30;8.40;;;;;;;15.40;68.77;101061.50;109200;1267;23217;-80
2022/06/11 00:27:10;;;;;;;9.40;8.20;;;;;;;15.38;68.78;101062.73;109159;1267;24356;-79
2022/06/11 00:29:58;;;;;;;;;;;;;;;;;;;;;
2022/06/11 00:32:41;;;;;;;10.80;8.90;;;;;;;15.34;68.95;101064.44;109304;1263;21983;-79
2022/06/11 00:35:29;;;;;;;12.10;8.30;;;;;;;15.31;69.01;101065.09;109530;1257;21969;-81
2022/06/11 00:38:17;;;;;;;10.30;7.40;;;;;;;15.29;69.12;101067.91;109442;1263;23052;-80
2022/06/11 00:41:09;;;;;;;12.00;9.30;;;;;;;15.26;69.38;101069.77;109623;1262;21976;-80
2022/06/11 00:44:17;;;;;;;;;;;;;;;15.24;69.45;101070.92;109826;1262;22592;-81
2022/06/11 00:47:26;;;;;;;12.90;9.80;;;;;;;15.15;69.74;101070.61;109316;1267;23765;-80
2022/06/11 00:50:44;;;;;;;;;;;;;;;;;;;;;
2022/06/11 00:53:45;;;;;;;11.80;10.60;;;;;;;15.15;69.96;101067.42;109213;1268;22219;-81
2022/06/11 00:56:49;;;;;;;12.30;11.00;;;;;;;15.17;69.96;101074.41;109356;1264;21981;-79
2022/06/11 00:59:43;;;;;;;13.90;11.70;;;;;;;15.19;69.95;101074.97;109527;1263;21982;-80
2022/06/11 01:02:33;;;;;;;;;;;;;;;;;;;;;
2022/06/11 01:05:24;;;;;;;11.10;10.00;;;;;;;15.15;69.53;101077.70;109457;1263;23664;-80
2022/06/11 01:08:38;;;;;;;;;;;;;;;;;;;;;
2022/06/11 01:12:10;;;;;;;12.00;10.00;;;;;;;15.07;69.60;101072.23;110403;1254;23030;-81
2022/06/11 01:15:46;;;;;;;14.70;9.40;;;;;;;15.01;69.71;101076.31;110047;1259;21968;-79
2022/06/11 01:19:32;;;;;;;13.00;9.80;;;;;;;14.94;69.91;101071.86;110688;1254;21979;-79
2022/06/11 01:23:14;;;;;;;10.30;9.30;;;;;;;14.90;70.04;101071.23;109855;1260;21998;-80
2022/06/11 01:27:02;;;;;;;13.10;10.40;;;;;;;14.85;70.21;101067.52;109399;1264;21978;-81
2022/06/11 01:30:42;;;;;;;12.30;10.30;;;;;;;14.79;70.12;101068.77;109027;1270;23689;-79
2022/06/11 01:33:45;;;;;;;11.80;10.60;;;;;;;14.75;70.13;101067.23;108860;1272;21998;-79
2022/06/11 01:36:46;;;;;;;12.90;10.30;;;;;;;14.75;70.34;101067.30;108784;1273;22985;-80
2022/06/11 01:40:37;;;;;;;12.60;10.40;;;;;;;14.72;70.20;101061.73;108407;1276;22864;-80
2022/06/11 01:44:05;;;;;;;13.10;9.90;;;;;;;14.67;70.16;101058.98;108665;1274;22990;-81
2022/06/11 01:47:31;;;;;;;12.20;9.90;;;;;;;14.61;70.34;101061.66;108665;1275;22027;-80
2022/06/11 01:50:27;;;;;;;13.90;10.80;;;;;;;14.59;70.36;101063.46;108101;1280;22052;-79
2022/06/11 01:53:51;;;;;;;11.10;10.00;;;;;;;14.57;70.37;101060.25;108213;1280;21995;-80
2022/06/11 01:57:31;;;;;;;13.10;10.30;;;;;;;14.52;70.43;101055.70;108301;1276;22138;-79
2022/06/11 02:00:31;;;;;;;11.90;10.60;;;;;;;14.48;70.41;101055.52;108884;1270;21974;-79
2022/06/11 02:03:55;;;;;;;13.90;11.70;;;;;;;14.43;70.60;101054.67;108988;1268;22310;-79
2022/06/11 02:06:55;;;;;;;11.30;10.00;;;;;;;14.42;70.81;101059.73;109163;1267;21976;-79
2022/06/11 02:09:57;;;;;;;15.70;10.50;;;;;;;14.38;70.74;101059.08;110285;1256;22996;-80
2022/06/11 02:13:17;;;;;;;;;;;;;;;;;;;;;
2022/06/11 02:16:32;;;;;;;12.20;10.30;;;;;;;14.32;70.94;101059.11;110158;1260;22849;-81
2022/06/11 02:19:53;;;;;;;15.20;10.40;;;;;;;14.28;70.78;101058.06;110138;1260;23511;-81
2022/06/11 02:23:05;;;;;;;15.00;11.70;;;;;;;14.22;70.69;101056.64;110023;1260;21976;-81
2022/06/11 02:26:21;;;;;;;16.40;12.10;;;;;;;14.18;70.79;101059.06;110294;1256;22390;-80
2022/06/11 02:29:12;;;;;;;12.30;11.10;;;;;;;14.15;70.83;101065.41;109503;1263;22013;-80
2022/06/11 02:32:11;;;;;;;13.20;11.90;;;;;;;14.12;70.89;101064.30;109564;1260;21984;-79
2022/06/11 02:35:02;;;;;;;15.90;11.90;;;;;;;14.12;70.85;101062.58;109949;1256;22129;-79
2022/06/11 02:37:45;;;;;;;13.60;12.30;;;;;;;14.10;71.12;101062.66;109966;1256;24072;-76
2022/06/11 02:40:26;;;;;;;12.70;11.40;;;;;;;14.08;71.13;101065.61;109802;1256;260797;-76
2022/06/11 02:43:19;;;;;;;14.90;13.50;;;;;;;14.06;71.13;101066.02;109889;1257;23709;-77
2022/06/11 02:46:01;;;;;;;15.40;13.90;;;;;;;14.04;71.14;101067.66;109847;1260;22067;-77
2022/06/11 02:48:58;;;;;;;15.00;13.40;;;;;;;14.01;71.15;101068.89;110496;1253;22007;-79
2022/06/11 02:52:14;;;;;;;15.70;12.50;;;;;;;13.99;71.38;101071.99;110479;1254;23036;-80
2022/06/11 02:55:02;;;;;;;15.30;10.90;;;;;;;13.97;71.35;101071.55;110311;1253;21981;-78
2022/06/11 02:57:52;;;;;;;12.20;11.20;;;;;;;13.96;71.41;101070.62;109957;1261;23787;-81
2022/06/11 03:00:55;;;;;;;14.20;11.90;;;;;;;13.96;71.63;101072.21;110110;1259;23591;-79
2022/06/11 03:03:49;;;;;;;13.60;12.20;;;;;;;13.95;71.66;101077.02;109565;1260;23674;-79
2022/06/11 03:06:45;;;;;;;13.70;11.60;;;;;;;13.95;71.55;101079.36;109644;1260;23009;-80
2022/06/11 03:09:34;;;;;;;13.00;11.70;;;;;;;13.95;71.49;101079.89;109658;1260;21966;-79
2022/06/11 03:12:41;;;;;;;;;;;;;;;;;;;;;
2022/06/11 03:16:04;;;;;;;;;;;;;;;;;;;;;
2022/06/11 03:19:03;;;;;;;12.80;11.60;;;;;;;13.98;71.93;101083.83;110080;1260;21975;-80
2022/06/11 03:22:20;;;;;;;13.80;11.90;;;;;;;14.02;72.03;101084.14;109980;1256;21974;-78
2022/06/11 03:24:56;;;;;;;12.20;11.00;;;;;;;14.05;71.91;101084.41;110761;1254;22012;-79
2022/06/11 03:28:13;;;;;;;13.70;12.30;;;;;;;14.10;71.91;101085.50;110249;1256;21979;-78
2022/06/11 03:30:57;;;;;;;13.50;11.50;;;;;;;14.13;72.18;101088.35;110635;1254;22045;-80
2022/06/11 03:33:53;;;;;;;12.10;11.00;;;;;;;14.18;72.18;101085.44;110388;1256;23615;-78
2022/06/11 03:36:48;;;;;;;12.00;10.80;;;;;;;14.24;72.35;101086.03;110500;1253;23684;-78
2022/06/11 03:40:03;;;;;;;13.40;11.40;;;;;;;14.30;72.22;101089.83;110389;1256;21962;-80
2022/06/11 03:43:32;;;;;;;13.20;11.30;;;;;;;14.34;72.16;101093.35;110899;1253;23029;-80
2022/06/11 03:46:35;;;;;;;12.20;10.60;;;;;;;14.41;72.08;101089.56;110155;1260;23037;-80
2022/06/11 03:49:24;;;;;;;12.70;10.20;;;;;;;14.47;72.11;101090.81;110298;1254;21975;-79
2022/06/11 03:52:37;;;;;;;;;;;;;;;;;;;;;
2022/06/11 03:55:55;;;;;;;;;;;;;;;14.62;72.00;101094.09;110043;1256;21950;-80
2022/06/11 03:58:56;;;;;;;13.30;11.30;;;;;;;14.62;72.13;101095.55;109880;1260;23412;-79
2022/06/11 04:02:10;;;;;;;;;;;;;;;;;;;;;
2022/06/11 04:05:00;;;;;;;;;;;;;;;;;;;;;
2022/06/11 04:07:46;;;;;;;16.80;12.60;;;;;;;14.95;72.34;101096.52;108958;1270;21980;-78
2022/06/11 04:10:52;;;;;;;15.00;13.30;;;;;;;15.08;72.29;101095.26;108673;1270;21978;-79
2022/06/11 04:13:48;;;;;;;17.90;12.70;;;;;;;15.20;72.23;101096.16;108890;1270;22007;-79
2022/06/11 04:16:51;;;;;;;20.60;14.10;;;;;;;15.32;72.04;101093.48;108810;1267;22307;-79
2022/06/11 04:20:02;;;;;;;15.20;13.50;;;;;;;15.44;71.93;101093.60;109243;1260;23834;-81
2022/06/11 04:22:55;;;;;;;15.40;13.90;;;;;;;15.56;71.68;101096.42;109862;1260;22531;-79
2022/06/11 04:26:18;;;;;;;13.10;11.80;;;;;;;15.70;71.48;101097.15;109936;1261;23071;-79
2022/06/11 04:29:09;;;;;;;19.70;13.00;;;;;;;15.85;71.41;101099.83;109161;1266;22904;-78
2022/06/11 04:32:04;;;;;;;;;;;;;;;;;;;;;
2022/06/11 04:35:06;;;;;;;15.90;13.20;;;;;;;16.13;70.82;101102.95;109494;1261;21979;-78
2022/06/11 04:38:14;;;;;;;;;;;;;;;;;;;;;
2022/06/11 04:41:05;;;;;;;18.80;14.80;;;;;;;16.48;70.24;101103.89;110544;1253;22053;-78
2022/06/11 04:43:57;;;;;;;14.40;12.80;;;;;;;16.62;70.04;101106.73;109830;1260;21972;-78
2022/06/11 04:47:05;;;;;;;15.20;12.50;;;;;;;16.78;69.65;101104.80;109809;1256;21964;-78
2022/06/11 04:49:57;;;;;;;17.30;12.50;;;;;;;16.94;69.27;101103.57;110147;1256;21970;-78
2022/06/11 04:53:19;;;;;;;13.90;12.20;;;;;;;17.11;68.74;101103.73;109805;1260;21968;-78
2022/06/11 04:56:13;;;;;;;16.00;12.60;;;;;;;17.24;68.12;101106.63;109578;1261;23061;-77
2022/06/11 04:59:06;;;;;;;13.40;11.60;;;;;;;17.33;67.82;101101.41;109252;1263;21971;-78
2022/06/11 05:01:47;;;;;;;11.50;10.20;;;;;;;17.51;67.69;101103.71;109473;1264;22054;-77
2022/06/11 05:04:33;;;;;;;14.70;11.50;;;;;;;17.67;67.31;101111.22;109430;1263;23689;-77
2022/06/11 05:07:33;;;;;;;16.70;11.20;;;;;;;17.85;66.92;101117.85;109606;1263;21984;-77
2022/06/11 05:10:34;;;;;;;9.40;8.40;;;;;;;18.04;66.48;101123.30;109597;1259;23822;-77
2022/06/11 05:13:21;;;;;;;8.50;7.30;;;;;;;18.21;65.94;101116.60;109718;1262;21959;-76
2022/06/11 05:15:57;;;;;;;10.30;7.90;;;;;;;18.36;65.08;101118.34;109145;1267;22047;-76
2022/06/11 05:18:34;;;;;;;12.40;7.80;;;;;;;18.52;64.35;101122.30;109276;1264;22023;-80
2022/06/11 05:21:21;;;;;;;13.80;8.20;;;;;;;18.71;63.76;101119.70;109530;1257;22123;-75
2022/06/11 05:23:56;;;;;;;9.40;8.30;;;;;;;18.95;62.95;101121.85;110152;1257;21975;-75
2022/06/11 05:26:45;;;;;;;10.50;9.10;;;;;;;19.16;62.51;101120.02;109974;1257;22020;-75
2022/06/11 05:30:07;;;;;;;11.50;8.20;;;;;;;19.41;62.26;101121.58;110015;1257;22010;-75
2022/06/11 05:32:50;;;;;;;11.10;10.00;;;;;;;19.68;61.70;101119.17;110477;1256;21980;-76
2022/06/11 05:35:34;;;;;;;12.30;8.20;;;;;;;19.91;60.94;101127.25;111019;1248;22843;-76
2022/06/11 05:38:57;;;;;;;12.80;7.50;;;;;;;20.18;59.76;101133.23;110934;1247;22238;-76
2022/06/11 05:41:37;;;;;;;7.90;6.60;;;;;;;20.41;59.16;101129.89;110890;1247;22729;-76
2022/06/11 05:44:25;;;;;;;;;;;;;;;;;;;;;
2022/06/11 05:47:47;;;;;;;;;;;;;;;;;;;;;
2022/06/11 05:50:36;;;;;;;5.60;4.80;;;;;;;21.35;56.49;101133.09;109921;1259;22024;-75
2022/06/11 05:53:28;;;;;;;;;;;;;;;;;;;;;
2022/06/11 05:56:57;;;;;;;;;;;;;;;;;;;;;
2022/06/11 06:01:27;;;;;;;;;;;;;;;;;;;;;
2022/06/11 06:05:19;;;;;;;5.10;2.70;;;;;;;23.57;50.01;101133.43;108138;1276;24460;-75
2022/06/11 06:08:14;;;;;;;5.10;2.70;;;;;;;24.19;48.05;101137.10;108016;1277;24423;-76
2022/06/11 06:11:22;;;;;;;8.20;2.70;;;;;;;24.68;45.80;101138.77;108322;1276;22462;-76
2022/06/11 06:14:26;;;;;;;4.80;2.60;;;;;;;25.25;44.02;101144.00;108389;1277;22007;-76
2022/06/11 06:17:23;;;;;;;;;;;;;;;;;;;;;
2022/06/11 06:20:51;;;;;;;4.90;2.00;;;;;;;26.11;41.70;101141.41;109045;1267;24571;-77
2022/06/11 06:24:31;;;;;;;;;;;;;;;;;;;;;
2022/06/11 06:28:08;;;;;;;10.40;3.00;;;;;;;26.89;39.01;101147.05;109229;1263;22847;-75
2022/06/11 06:31:37;;;;;;;;;;;;;;;;;;;;;
2022/06/11 06:38:50;;;;;;;8.10;3.00;;;;;;;27.84;36.86;101155.07;108816;1270;21991;-76
2022/06/11 06:42:18;;;;;;;3.80;2.00;;;;;;;28.00;36.49;101156.83;109164;1263;22054;-76
2022/06/11 06:45:20;;;;;;;3.20;2.20;;;;;;;28.20;35.75;101157.78;110081;1256;21968;-77
2022/06/11 06:49:17;;;;;;;;;;;;;;;;;;;;;
2022/06/11 06:53:31;;;;;;;;;;;;;;;;;;;;;
2022/06/11 06:57:31;;;;;;;2.00;1.00;;;;;;;28.59;33.24;101162.27;108413;1275;21974;-76
2022/06/11 07:01:38;;;;;;;;;;;;;;;;;;;;;
2022/06/11 07:05:17;;;;;;;;;;;;;;;;;;;;;
2022/06/11 07:08:52;;;;;;;3.00;1.10;;;;;;;28.88;31.84;101170.98;107870;1282;22207;-77
2022/06/11 07:11:50;;;;;;;;;;;;;;;;;;;;;
2022/06/11 07:15:19;;;;;;;;;;;;;;;;;;;;;
2022/06/11 07:18:47;;;;;;;3.30;1.40;;;;;;;29.43;31.22;101161.36;108334;1268;21988;-76
2022/06/11 07:22:45;;;;;;;3.20;1.30;;;;;;;29.64;30.36;101168.37;108556;1276;21988;-77
2022/06/11 07:25:59;;;;;;;5.40;1.20;;;;;;;29.83;29.48;101170.67;108432;1276;22358;-77
2022/06/11 07:29:59;;;;;;;;;;;;;;;;;;;;;
2022/06/11 07:33:33;;;;;;;;;;;;;;;;;;;;;
2022/06/11 07:36:43;;;;;;;;;;;;;;;;;;;;;
2022/06/11 07:40:15;;;;;;;2.30;1.10;;;;;;;29.83;27.93;101175.36;108053;1279;23594;-77
2022/06/11 07:43:31;;;;;;;;;;;;;;;;;;;;;
2022/06/11 07:46:55;;;;;;;4.30;1.90;;;;;;;30.09;28.05;101165.46;108820;1270;22076;-76
2022/06/11 07:49:33;;;;;;;10.40;2.20;;;;;;;30.19;27.62;101163.38;108670;1270;23692;-76
2022/06/11 07:52:15;;;;;;;4.10;1.50;;;;;;;30.27;27.82;101161.83;108728;1270;21989;-76
2022/06/11 07:54:47;;;;;;;7.00;2.00;;;;;;;30.29;27.80;101160.77;108970;1264;21960;-76
2022/06/11 07:57:19;;;;;;;3.20;1.70;;;;;;;30.28;28.00;101166.07;108821;1265;23099;-76
2022/06/11 07:59:49;;;;;;;7.70;1.90;;;;;;;30.31;27.48;101167.52;108966;1264;22792;-76
2022/06/11 08:02:19;;;;;;;10.50;1.70;;;;;;;30.23;27.33;101163.73;109110;1260;21966;-76
2022/06/11 08:04:57;;;;;;;5.90;1.50;;;;;;;30.20;27.45;101164.23;109661;1259;23081;-76
2022/06/11 08:07:29;;;;;;;8.90;1.80;;;;;;;30.36;27.57;101162.05;110108;1256;22614;-76
2022/06/11 08:10:05;;;;;;;9.20;1.60;;;;;;;30.46;26.90;101160.30;110012;1256;21959;-75
2022/06/11 08:12:40;;;;;;;4.20;1.30;;;;;;;30.35;26.88;101162.00;110354;1253;22010;-75
2022/06/11 08:15:12;;;;;;;3.60;1.30;;;;;;;30.36;27.21;101164.50;110361;1253;21947;-76
2022/06/11 08:17:44;;;;;;;4.90;1.30;;;;;;;30.55;26.80;101163.19;110496;1254;21960;-77
2022/06/11 08:20:25;;;;;;;3.10;0.80;;;;;;;30.77;26.15;101158.82;110290;1253;23686;-76
2022/06/11 08:22:55;;;;;;;4.00;1.40;;;;;;;30.90;25.46;101156.22;110201;1256;23208;-77
2022/06/11 08:25:28;;;;;;;3.30;1.80;;;;;;;30.85;25.93;101157.14;110371;1253;21950;-76
2022/06/11 08:28:00;;;;;;;3.10;1.30;;;;;;;30.88;26.11;101154.70;110296;1253;22746;-75
2022/06/11 08:30:33;;;;;;;4.10;1.30;;;;;;;31.03;25.40;101159.61;110514;1253;22951;-74
2022/06/11 08:33:06;;;;;;;4.00;1.40;;;;;;;31.10;25.07;101159.29;110526;1254;21955;-76
2022/06/11 08:35:38;;;;;;;3.70;1.30;;;;;;;31.07;24.51;101157.06;110963;1247;23934;-76
2022/06/11 08:38:09;;;;;;;4.90;1.60;;;;;;;30.89;24.42;101152.42;110531;1253;21959;-76
2022/06/11 08:40:52;;;;;;;3.60;1.20;;;;;;;30.78;24.84;101151.12;110494;1253;22999;-76
2022/06/11 08:43:36;;;;;;;5.50;1.30;;;;;;;30.77;25.55;101149.70;110539;1253;22004;-77
2022/06/11 08:46:21;;;;;;;8.50;1.60;;;;;;;30.85;25.57;101156.48;110503;1253;23675;-76
2022/06/11 08:49:06;;;;;;;5.30;2.10;;;;;;;31.02;25.55;101157.33;110527;1253;21969;-76
2022/06/11 08:51:51;;;;;;;2.70;1.10;;;;;;;31.23;25.27;101149.52;110533;1253;21973;-76
2022/06/11 08:54:34;;;;;;;5.80;1.70;;;;;;;31.28;24.77;101145.36;110532;1253;23028;-75
2022/06/11 08:58:01;;;;;;;4.50;1.60;;;;;;;31.16;24.72;101145.98;110310;1253;23014;-76
2022/06/11 09:00:50;;;;;;;2.90;1.20;;;;;;;31.04;25.24;101146.52;110544;1253;23050;-76
2022/06/11 09:03:40;;;;;;;3.60;1.40;;;;;;;31.03;24.71;101149.35;110445;1253;23621;-77
2022/06/11 09:07:37;;;;;;;4.30;1.30;;;;;;;30.96;24.20;101148.96;110585;1253;22005;-76
2022/06/11 09:11:19;;;;;;;5.30;1.90;;;;;;;30.86;24.47;101146.73;109831;1259;22112;-77
2022/06/11 09:14:08;;;;;;;5.80;2.80;;;;;;;30.86;24.29;101141.75;109233;1265;23029;-76
2022/06/11 09:17:00;;;;;;;3.80;1.60;;;;;;;30.88;24.04;101141.61;109340;1264;23723;-76
2022/06/11 09:19:50;;;;;;;4.00;1.30;;;;;;;30.84;24.29;101141.75;108797;1273;23662;-76
2022/06/11 09:23:08;;;;;;;4.50;1.20;;;;;;;30.75;24.75;101136.34;108367;1279;21997;-76
2022/06/11 09:26:14;;;;;;;5.60;1.20;;;;;;;30.75;25.15;101135.70;108374;1277;23742;-75
2022/06/11 09:29:25;;;;;;;2.70;1.20;;;;;;;30.81;25.17;101131.47;108434;1276;23615;-77
2022/06/11 09:32:12;;;;;;;5.60;1.20;;;;;;;30.80;25.12;101131.26;108477;1273;22086;-78
2022/06/11 09:35:02;;;;;;;4.20;1.30;;;;;;;30.79;25.00;101128.86;108455;1273;23057;-77
2022/06/11 09:38:10;;;;;;;;;;;;;;;;;;;;;
2022/06/11 09:46:24;;;;;;;;;;;;;;;;;;;;;
2022/06/11 09:50:19;;;;;;;3.70;1.00;;;;;;;31.38;24.05;101114.89;108335;1273;21985;-77
2022/06/11 09:53:53;;;;;;;3.70;1.70;;;;;;;31.37;23.53;101118.94;108743;1272;23056;-78
2022/06/11 09:57:13;;;;;;;2.80;1.10;;;;;;;31.22;24.05;101117.30;108701;1273;23059;-78
2022/06/11 10:00:36;;;;;;;;;;;;;;;;;;;;;
2022/06/11 10:04:03;;;;;;;;;;;;;;;;;;;;;
2022/06/11 10:07:51;;;;;;;5.50;1.30;;;;;;;31.04;25.32;101107.92;109664;1262;21974;-77
2022/06/11 10:11:08;;;;;;;4.60;1.10;;;;;;;31.01;24.57;101104.84;108899;1270;22003;-78
2022/06/11 10:14:31;;;;;;;4.10;1.20;;;;;;;30.56;24.39;101105.76;108804;1270;22088;-77
2022/06/11 10:17:08;;;;;;;3.80;1.30;;;;;;;30.19;24.98;101106.25;108716;1270;22200;-78
2022/06/11 10:19:54;;;;;;;5.90;1.50;;;;;;;29.84;25.20;101111.95;108648;1266;23138;-76
2022/06/11 10:22:55;;;;;;;5.40;1.30;;;;;;;29.54;25.91;101110.17;108837;1273;23857;-77
2022/06/11 10:26:11;;;;;;;5.50;1.40;;;;;;;29.55;26.78;101107.23;109002;1267;21973;-77
2022/06/11 10:29:52;;;;;;;2.70;1.00;;;;;;;29.69;26.28;101110.38;108676;1273;22016;-77
2022/06/11 10:32:42;;;;;;;4.60;1.80;;;;;;;29.54;25.80;101103.70;108348;1278;21992;-75
2022/06/11 10:35:43;;;;;;;7.80;1.20;;;;;;;29.36;25.95;101103.02;108015;1282;22003;-76
2022/06/11 10:39:01;;;;;;;6.60;2.10;;;;;;;29.16;25.88;101097.94;107879;1282;22140;-76
2022/06/11 10:41:55;;;;;;;3.90;1.30;;;;;;;28.93;26.37;101094.13;107961;1282;21997;-77
2022/06/11 10:44:38;;;;;;;4.50;1.60;;;;;;;28.68;26.39;101095.73;107968;1282;23577;-77
2022/06/11 10:47:42;;;;;;;3.30;1.20;;;;;;;28.42;27.29;101098.30;108024;1276;22406;-77
2022/06/11 10:50:37;;;;;;;5.80;1.60;;;;;;;28.11;28.10;101087.93;108429;1276;22004;-77
2022/06/11 10:53:57;;;;;;;2.80;1.40;;;;;;;28.01;28.46;101085.41;108067;1278;22008;-77
2022/06/11 10:57:07;;;;;;;6.30;1.30;;;;;;;27.84;28.75;101088.23;108185;1276;22909;-77
2022/06/11 11:00:21;;;;;;;5.40;2.80;;;;;;;27.79;29.23;101086.62;108514;1275;22007;-76
2022/06/11 11:09:22;;;;;;;;;;;;;;;;;;;;;
2022/06/11 11:18:20;;;;;;;6.60;2.00;;;;;;;27.59;29.66;101072.86;107893;1297;23122;-77
2022/06/11 11:26:16;;;;;;;3.70;1.30;;;;;;;27.34;29.95;101056.61;107885;1290;23075;-75
2022/06/11 11:29:10;;;;;;;3.30;1.40;;;;;;;27.34;30.56;101055.15;107893;1289;22030;-76
2022/06/11 11:32:04;;;;;;;2.10;1.10;;;;;;;27.35;30.68;101053.70;107916;1289;22039;-78
2022/06/11 11:38:57;;;;;;;;;;;;;;;;;;;;;
2022/06/11 11:41:33;;;;;;;14.50;2.10;;;;;;;27.06;29.52;101043.13;107198;1291;23826;-77
2022/06/11 11:45:07;;;;;;;;;;;;;;;;;;;;;
2022/06/11 11:48:32;;;;;;;2.70;1.20;;;;;;;26.80;30.27;101037.13;107557;1292;22021;-78
2022/06/11 11:51:50;;;;;;;3.80;1.70;;;;;;;26.67;30.33;101033.18;107822;1290;22018;-76
2022/06/11 12:00:17;;;;;;;3.10;1.80;;;;;;;26.25;31.04;101031.08;107899;1292;23644;-76
2022/06/11 12:08:00;;;;;;;16.40;11.40;;;;;;;26.17;31.62;101028.46;107837;1293;22078;-78
2022/06/11 12:11:23;;;;;;;5.90;4.20;;;;;;;26.17;31.69;101026.83;107622;1294;22020;-77
2022/06/11 12:18:34;;;;;;;3.50;2.10;;;;;;;26.19;32.43;101026.14;107569;1292;23017;-77
2022/06/11 12:33:47;;;;;;;7.30;1.50;;;;;;;26.23;32.56;101017.15;110060;1275;22032;-78
2022/06/11 12:37:20;;;;;;;4.20;2.30;;;;;;;26.23;32.46;101022.17;109190;1279;22006;-78
2022/06/11 12:41:02;;;;;;;5.40;4.10;;;;;;;26.26;32.14;101022.05;109044;1283;22022;-79
2022/06/11 12:50:31;;;;;;;3.80;1.60;;;;;;;26.24;31.96;101019.48;107027;1294;23056;-79
2022/06/11 12:53:06;;;;;;;5.20;3.40;;;;;;;26.23;32.38;101021.27;106543;1294;23085;-80
2022/06/11 12:56:45;;;;;;;3.30;1.60;;;;;;;26.23;32.46;101018.98;107114;1295;22014;-79
2022/06/11 13:00:32;;;;;;;6.10;1.80;;;;;;;26.29;32.47;101019.64;107541;1296;22049;-79
2022/06/11 13:04:43;;;;;;;5.00;1.70;;;;;;;26.34;32.70;101013.52;108395;1292;22015;-80
2022/06/11 13:08:32;;;;;;;;;;;;;;;;;;;;;
2022/06/11 13:17:42;;;;;;;4.00;1.20;;;;;;;26.77;32.77;100999.80;109229;1291;23689;-77
2022/06/11 13:20:55;;;;;;;2.10;1.00;;;;;;;26.89;32.69;101000.98;107860;1291;22136;-79
2022/06/11 13:34:20;;;;;;;4.30;1.00;;;;;;;26.79;32.76;100992.18;108443;1287;23723;-79
2022/06/11 13:38:32;;;;;;;;;;;;;;;;;;;;;
2022/06/11 13:55:40;;;;;;;5.50;1.20;;;;;;;26.97;31.97;100970.28;105772;1308;22047;-76
2022/06/11 13:58:32;;;;;;;1.90;1.10;;;;;;;27.01;31.81;100976.16;105365;1308;23057;-84
2022/06/11 14:02:13;;;;;;;3.60;1.50;;;;;;;26.98;31.74;100978.21;105606;1308;22208;-79
2022/06/11 14:05:07;;;;;;;8.90;4.70;;;;;;;26.93;31.86;100971.89;107907;1286;544210;-77
2022/06/11 14:07:37;;;;;;;3.10;1.90;;;;;;;26.84;31.85;100970.36;110143;1259;22742;-77
2022/06/11 14:10:49;;;;;;;4.30;1.20;;;;;;;26.78;32.26;100967.34;110317;1257;23938;-75
2022/06/11 14:14:03;;;;;;;3.80;1.50;;;;;;;26.71;32.23;100969.31;110321;1257;21960;-77
2022/06/11 14:16:42;;;;;;;4.70;2.00;;;;;;;26.66;32.31;100963.52;109385;1264;23139;-81
2022/06/11 14:19:14;;;;;;;3.50;1.50;;;;;;;26.60;32.55;100963.96;109556;1261;357654;-79
2022/06/11 14:21:51;;;;;;;4.20;1.90;;;;;;;26.54;32.56;100965.98;110090;1259;21978;-77
2022/06/11 14:24:58;;;;;;;3.50;1.50;;;;;;;26.44;32.89;100961.44;108838;1270;22020;-77
2022/06/11 14:27:41;;;;;;;2.90;1.90;;;;;;;26.31;32.89;100962.67;108385;1279;22007;-78
2022/06/11 14:30:10;;;;;;;3.90;1.60;;;;;;;26.19;33.05;100955.48;108111;1279;21995;-78
2022/06/11 14:33:05;;;;;;;2.90;1.10;;;;;;;26.13;33.07;100952.38;108638;1279;23028;-77
2022/06/11 14:35:53;;;;;;;5.10;2.00;;;;;;;26.08;33.06;100944.98;108265;1279;23702;-77
2022/06/11 14:38:29;;;;;;;3.70;1.60;;;;;;;26.06;33.02;100947.50;107907;1283;22065;-77
2022/06/11 14:41:39;;;;;;;2.40;1.20;;;;;;;26.08;33.09;100948.44;108049;1283;22742;-77
2022/06/11 14:44:19;;;;;;;4.20;1.20;;;;;;;26.12;32.87;100943.16;108081;1282;22099;-78
2022/06/11 14:46:56;;;;;;;8.10;1.70;;;;;;;26.14;32.55;100938.10;108176;1279;22008;-79
2022/06/11 14:49:29;;;;;;;4.20;1.50;;;;;;;26.16;32.32;100939.09;108188;1279;22009;-79
2022/06/11 14:52:08;;;;;;;2.90;1.80;;;;;;;26.14;32.42;100936.64;108273;1279;23726;-79
2022/06/11 14:54:46;;;;;;;3.20;1.20;;;;;;;26.09;32.57;100931.33;108949;1267;23541;-75
2022/06/11 14:57:40;;;;;;;5.00;1.60;;;;;;;26.05;32.64;100927.39;109217;1263;21973;-77
2022/06/11 15:00:58;;;;;;;3.40;2.00;;;;;;;25.97;32.52;100935.66;109079;1269;22078;-78
2022/06/11 15:03:59;;;;;;;2.60;1.60;;;;;;;25.90;33.02;100932.12;110453;1254;22009;-79
2022/06/11 15:06:46;;;;;;;3.60;1.60;;;;;;;25.87;32.89;100933.17;110446;1257;21972;-77
2022/06/11 15:09:58;;;;;;;3.40;1.50;;;;;;;25.87;33.03;100931.73;110239;1257;21989;-77
2022/06/11 15:13:04;;;;;;;3.40;1.80;;;;;;;25.90;33.19;100932.83;110456;1255;21979;-78
2022/06/11 15:16:27;;;;;;;3.60;1.20;;;;;;;25.93;33.05;100927.45;109941;1262;22073;-77
2022/06/11 15:19:32;;;;;;;5.50;1.70;;;;;;;25.87;33.10;100922.29;110018;1257;21964;-79
2022/06/11 15:22:52;;;;;;;4.00;1.30;;;;;;;25.81;33.08;100918.94;109852;1260;24295;-77
2022/06/11 15:25:27;;;;;;;1.70;1.10;;;;;;;25.79;33.31;100919.81;108371;1273;22725;-79
2022/06/11 15:28:11;;;;;;;2.30;1.50;;;;;;;25.76;33.21;100920.16;108363;1279;23105;-78
2022/06/11 15:30:42;;;;;;;4.40;1.80;;;;;;;25.73;33.13;100911.90;107755;1285;22034;-76
2022/06/11 15:33:50;;;;;;;4.50;2.40;;;;;;;25.72;33.16;100909.29;107828;1285;21995;-79
2022/06/11 15:37:54;;;;;;;2.90;1.80;;;;;;;25.68;33.19;100907.41;107491;1288;23636;-77
2022/06/11 15:44:29;;;;;;;;;;;;;;;;;;;;;
2022/06/11 15:48:27;;;;;;;;;;;;;;;;;;;;;
2022/06/11 15:51:27;;;;;;;5.30;3.00;;;;;;;25.58;32.83;100902.42;106479;1299;23088;-78
2022/06/11 16:01:12;;;;;;;3.60;1.40;;;;;;;25.62;32.99;100895.83;107287;1290;22016;-79
2022/06/11 16:03:57;;;;;;;4.90;1.90;;;;;;;25.66;32.80;100893.81;107734;1282;22216;-80
2022/06/11 16:07:26;;;;;;;3.10;1.70;;;;;;;25.70;32.57;100891.52;107683;1286;22760;-80
2022/06/11 16:10:14;;;;;;;2.30;1.10;;;;;;;25.71;32.90;100895.59;107835;1287;23654;-80
2022/06/11 16:12:57;;;;;;;2.70;1.30;;;;;;;25.63;33.01;100892.80;107904;1285;22004;-79
2022/06/11 16:15:48;;;;;;;4.20;2.00;;;;;;;25.58;33.04;100891.98;107658;1286;22027;-80
2022/06/11 16:19:06;;;;;;;4.20;2.10;;;;;;;25.59;33.33;100889.13;108180;1279;23770;-79
2022/06/11 16:21:54;;;;;;;2.40;1.60;;;;;;;25.60;33.52;100888.45;108052;1282;22038;-79
2022/06/11 16:24:30;;;;;;;3.40;1.50;;;;;;;25.58;33.49;100888.52;108112;1282;22019;-79
2022/06/11 16:27:20;;;;;;;4.40;1.60;;;;;;;25.54;33.74;100888.17;108222;1274;22002;-79
2022/06/11 16:30:04;;;;;;;12.80;11.60;;;;;;;25.51;34.05;100888.83;108520;1273;23153;-80
2022/06/11 16:32:59;;;;;;;18.30;16.60;;;;;;;25.47;34.38;100893.01;108576;1273;22225;-79
2022/06/11 16:35:52;;;;;;;6.20;4.40;;;;;;;25.43;34.60;100892.75;109273;1267;21981;-79
2022/06/11 16:38:28;;;;;;;5.90;2.70;;;;;;;25.40;34.82;100894.50;109962;1263;23725;-79
2022/06/11 16:41:17;;;;;;;4.30;1.30;;;;;;;25.36;34.87;100895.70;110449;1257;22995;-81
2022/06/11 16:44:12;;;;;;;6.00;3.90;;;;;;;25.29;35.05;100895.90;109971;1260;23597;-79
2022/06/11 16:47:17;;;;;;;5.40;2.60;;;;;;;25.25;35.26;100894.00;110052;1260;22301;-79
2022/06/11 16:56:16;;;;;;;;;;;;;;;;;;;;;
2022/06/11 16:59:38;;;;;;;3.40;2.10;;;;;;;25.02;35.69;100896.27;109073;1267;21975;-79
2022/06/11 17:05:28;;;;;;;5.00;2.10;;;;;;;24.97;36.12;100893.08;108977;1267;22246;-79